createdAt,value
2023-08-14T00:04:09.711Z,96665.09
2023-08-14T00:09:13.020Z,96677.66
2023-08-14T00:14:15.419Z,96666.69
2023-08-14T00:19:18.095Z,96688.69
2023-08-14T00:24:20.761Z,96644.47
2023-08-14T00:29:23.685Z,96671.31
2023-08-14T00:34:26.060Z,96684.94
2023-08-14T00:39:28.772Z,96679.06
2023-08-14T00:44:31.896Z,96661.31
2023-08-14T00:49:35.009Z,96671.88
2023-08-14T00:54:37.770Z,96663.47
2023-08-14T00:59:40.696Z,96673.59
2023-08-14T01:04:43.458Z,96674.94
2023-08-14T01:09:47.555Z,96671.44
2023-08-14T01:14:58.865Z,96657.97
2023-08-14T01:20:03.733Z,96659.34
2023-08-14T01:25:24.757Z,96660.09
2023-08-14T01:30:27.851Z,96668.91
2023-08-14T01:35:43.693Z,96644.09
2023-08-14T01:41:16.897Z,96671.00
2023-08-14T01:46:19.870Z,96656.44
2023-08-14T01:51:23.189Z,96650.66
2023-08-14T01:56:25.573Z,96641.34
2023-08-14T02:01:28.326Z,96661.19
2023-08-14T02:06:33.192Z,96679.09
2023-08-14T02:11:37.505Z,96658.41
2023-08-14T02:16:40.284Z,96662.06
2023-08-14T02:21:42.523Z,96667.69
2023-08-14T02:26:45.242Z,96675.91
2023-08-14T02:31:48.942Z,96681.75
2023-08-14T02:36:51.653Z,96694.56
2023-08-14T02:41:54.655Z,96702.16
2023-08-14T02:46:58.699Z,96699.53
2023-08-14T02:52:02.009Z,96702.09
2023-08-14T02:57:04.958Z,96703.78
2023-08-14T03:02:07.920Z,96690.69
2023-08-14T03:07:10.790Z,96702.00
2023-08-14T03:12:13.477Z,96692.78
2023-08-14T03:17:16.208Z,96691.19
2023-08-14T03:22:19.269Z,96691.88
2023-08-14T03:27:21.879Z,96707.56
2023-08-14T03:32:24.610Z,96699.03
2023-08-14T03:37:27.725Z,96687.00
2023-08-14T03:42:31.206Z,96687.41
2023-08-14T03:47:33.668Z,96677.31
2023-08-14T03:52:36.932Z,96700.09
2023-08-14T03:57:39.642Z,96700.19
2023-08-14T04:02:42.765Z,96700.59
2023-08-14T04:07:45.656Z,96715.72
2023-08-14T04:12:47.946Z,96696.16
2023-08-14T04:17:51.188Z,96731.41
2023-08-14T04:22:53.958Z,96742.63
2023-08-14T04:27:56.810Z,96733.47
2023-08-14T04:32:59.762Z,96729.13
2023-08-14T04:38:02.762Z,96728.38
2023-08-14T04:43:06.168Z,96729.47
2023-08-14T04:48:09.119Z,96707.63
2023-08-14T04:53:12.594Z,96735.44
2023-08-14T04:58:16.890Z,96735.00
2023-08-14T05:03:20.248Z,96738.66
2023-08-14T05:08:23.276Z,96732.53
2023-08-14T05:13:25.616Z,96739.31
2023-08-14T05:18:29.060Z,96748.53
2023-08-14T05:23:31.964Z,96721.94
2023-08-14T05:28:34.246Z,96735.50
2023-08-14T05:33:36.844Z,96717.28
2023-08-14T05:38:39.884Z,96720.94
2023-08-14T05:43:42.583Z,96683.94
2023-08-14T05:48:44.806Z,96717.25
2023-08-14T05:53:47.573Z,96715.16
2023-08-14T05:58:50.241Z,96723.47
2023-08-14T06:03:56.388Z,96711.75
2023-08-14T06:09:01.185Z,96694.28
2023-08-14T06:14:03.885Z,96678.69
2023-08-14T06:19:06.650Z,96676.69
2023-08-14T06:24:09.481Z,96670.03
2023-08-14T06:29:12.192Z,96675.75
2023-08-14T06:34:29.354Z,96670.00
2023-08-14T06:39:32.723Z,96689.19
2023-08-14T06:44:35.593Z,96670.53
2023-08-14T06:49:41.120Z,96663.34
2023-08-14T06:54:43.806Z,96672.78
2023-08-14T06:59:46.914Z,96660.72
2023-08-14T07:04:49.802Z,96672.28
2023-08-14T07:09:52.630Z,96662.88
2023-08-14T07:14:55.429Z,96685.66
2023-08-14T07:19:58.271Z,96662.66
2023-08-14T07:25:00.671Z,96643.63
2023-08-14T07:30:02.942Z,96652.91
2023-08-14T07:35:06.041Z,96654.88
2023-08-14T07:40:08.846Z,96657.00
2023-08-14T07:45:11.812Z,96649.13
2023-08-14T07:50:14.872Z,96663.94
2023-08-14T07:55:17.659Z,96642.78
2023-08-14T08:00:21.807Z,96659.47
2023-08-14T08:05:24.625Z,96618.34
2023-08-14T08:10:27.490Z,96651.66
2023-08-14T08:15:32.377Z,96653.03
2023-08-14T08:20:35.187Z,96639.03
2023-08-14T08:25:37.903Z,96648.09
2023-08-14T08:30:41.658Z,96647.41
2023-08-14T08:35:44.547Z,96641.19
2023-08-14T08:40:50.586Z,96652.88
2023-08-14T08:45:59.522Z,96654.28
2023-08-14T08:51:03.028Z,96641.25
2023-08-14T08:56:06.490Z,96647.63
2023-08-14T09:01:09.355Z,96660.13
2023-08-14T09:06:13.960Z,96642.66
2023-08-14T09:11:17.038Z,96648.25
2023-08-14T09:16:19.921Z,96633.53
2023-08-14T09:21:22.737Z,96635.22
2023-08-14T09:26:25.901Z,96650.63
2023-08-14T09:31:35.207Z,96642.63
2023-08-14T09:36:38.024Z,96625.50
2023-08-14T09:41:40.788Z,96617.41
2023-08-14T09:46:43.872Z,96627.31
2023-08-14T09:51:59.653Z,96628.44
2023-08-14T09:57:08.498Z,96616.16
2023-08-14T10:02:14.029Z,96615.34
2023-08-14T10:07:18.591Z,96608.84
2023-08-14T10:12:29.862Z,96604.16
2023-08-14T10:17:37.364Z,96605.97
2023-08-14T10:22:42.977Z,96592.69
2023-08-14T10:27:45.752Z,96590.38
2023-08-14T10:32:49.294Z,96615.19
2023-08-14T10:38:00.696Z,96597.16
2023-08-14T10:43:12.030Z,96593.09
2023-08-14T10:48:14.954Z,96579.09
2023-08-14T10:53:18.253Z,96584.72
2023-08-14T10:58:30.487Z,96580.84
2023-08-14T11:04:05.725Z,96572.69
2023-08-14T11:09:11.285Z,96602.38
2023-08-14T11:14:13.581Z,96584.44
2023-08-14T11:19:17.318Z,96590.13
2023-08-14T11:24:19.574Z,96574.47
2023-08-14T11:29:22.325Z,96583.84
2023-08-14T11:34:25.422Z,96565.06
2023-08-14T11:39:29.164Z,96579.72
2023-08-14T11:44:31.571Z,96564.69
2023-08-14T11:49:38.374Z,96560.63
2023-08-14T11:54:41.218Z,96543.69
2023-08-14T11:59:47.670Z,96543.00
2023-08-14T12:04:58.483Z,96544.34
2023-08-14T12:10:01.920Z,96547.56
2023-08-14T12:15:04.792Z,96525.19
2023-08-14T12:20:11.832Z,96532.06
2023-08-14T12:25:19.873Z,96531.44
2023-08-14T12:30:22.521Z,96506.22
2023-08-14T12:35:25.317Z,96526.84
2023-08-14T12:40:29.548Z,96510.25
2023-08-14T12:45:32.031Z,96505.06
2023-08-14T12:50:34.901Z,96504.66
2023-08-14T12:55:37.107Z,96502.91
2023-08-14T13:00:40.550Z,96490.56
2023-08-14T13:05:43.294Z,96491.53
2023-08-14T13:10:45.624Z,96466.66
2023-08-14T13:15:48.354Z,96471.09
2023-08-14T13:20:51.684Z,96481.53
2023-08-14T13:25:54.105Z,96480.09
2023-08-14T13:30:56.867Z,96468.25
2023-08-14T13:35:59.636Z,96467.75
2023-08-14T13:41:02.508Z,96450.28
2023-08-14T13:46:05.365Z,96449.41
2023-08-14T13:51:08.038Z,96447.63
2023-08-14T13:56:10.747Z,96413.66
2023-08-14T14:01:13.469Z,96446.31
2023-08-14T14:06:16.160Z,96453.19
2023-08-14T14:11:18.619Z,96437.97
2023-08-14T14:16:24.746Z,96439.31
2023-08-14T14:21:27.579Z,96423.09
2023-08-14T14:26:30.383Z,96439.31
2023-08-14T14:31:33.167Z,96406.09
2023-08-14T14:36:36.213Z,96430.38
2023-08-14T14:41:39.597Z,96424.53
2023-08-14T14:46:45.102Z,96406.72
2023-08-14T14:51:48.014Z,96414.19
2023-08-14T14:56:50.741Z,96407.97
2023-08-14T15:01:56.287Z,96403.81
2023-08-14T15:06:58.936Z,96415.47
2023-08-14T15:12:01.584Z,96397.38
2023-08-14T15:17:04.406Z,96399.25
2023-08-14T15:22:07.121Z,96405.88
2023-08-14T15:27:09.896Z,96421.28
2023-08-14T15:32:12.766Z,96415.88
2023-08-14T15:37:15.551Z,96419.56
2023-08-14T15:42:18.232Z,96426.81
2023-08-14T15:47:21.297Z,96431.41
2023-08-14T15:52:30.054Z,96439.84
2023-08-14T15:57:32.938Z,96428.22
2023-08-14T16:02:35.971Z,96442.47
2023-08-14T16:07:38.799Z,96433.88
2023-08-14T16:12:41.447Z,96436.13
2023-08-14T16:17:44.220Z,96444.69
2023-08-14T16:22:46.923Z,96451.13
2023-08-14T16:27:49.669Z,96454.13
2023-08-14T16:32:52.546Z,96449.63
2023-08-14T16:37:55.812Z,96443.88
2023-08-14T16:42:58.491Z,96445.22
2023-08-14T16:48:01.249Z,96462.56
2023-08-14T16:53:03.603Z,96450.38
2023-08-14T16:58:05.820Z,96465.28
2023-08-14T17:03:08.958Z,96464.06
2023-08-14T17:08:11.628Z,96463.19
2023-08-14T17:13:13.934Z,96467.28
2023-08-14T17:18:16.676Z,96486.38
2023-08-14T17:23:20.033Z,96474.97
2023-08-14T17:28:25.752Z,96511.06
2023-08-14T17:33:28.888Z,96503.97
2023-08-14T17:38:31.782Z,96505.41
2023-08-14T17:43:34.477Z,96523.03
2023-08-14T17:48:37.317Z,96490.22
2023-08-14T17:53:41.722Z,96534.16
2023-08-14T17:58:44.345Z,96532.25
2023-08-14T18:03:47.040Z,96551.13
2023-08-14T18:08:50.399Z,96571.63
2023-08-14T18:13:53.867Z,96577.41
2023-08-14T18:19:12.600Z,96583.34
2023-08-14T18:24:18.960Z,96567.97
2023-08-14T18:29:21.854Z,96567.75
2023-08-14T18:34:24.114Z,96574.78
2023-08-14T18:39:26.955Z,96602.09
2023-08-14T18:44:29.382Z,96593.34
2023-08-14T18:49:38.609Z,96601.72
2023-08-14T18:54:46.740Z,96608.69
2023-08-14T18:59:49.821Z,96602.91
2023-08-14T19:04:52.730Z,96600.81
2023-08-14T19:09:55.372Z,96617.03
2023-08-14T19:14:58.172Z,96629.41
2023-08-14T19:20:01.427Z,96628.91
2023-08-14T19:25:04.427Z,96639.81
2023-08-14T19:30:07.458Z,96638.53
2023-08-14T19:35:13.314Z,96656.59
2023-08-14T19:40:16.187Z,96656.59
2023-08-14T19:45:19.115Z,96657.78
2023-08-14T19:55:48.969Z,96661.13
2023-08-14T20:00:51.982Z,96662.22
2023-08-14T20:05:54.796Z,96677.44
2023-08-14T20:11:04.397Z,96678.66
2023-08-14T20:16:07.922Z,96681.09
2023-08-14T20:21:10.222Z,96659.44
2023-08-14T20:26:12.855Z,96659.75
2023-08-14T20:31:22.342Z,96669.66
2023-08-14T20:36:29.421Z,96664.47
2023-08-14T20:41:32.246Z,96680.63
2023-08-14T20:46:34.932Z,96680.16
2023-08-14T20:51:37.853Z,96688.38
2023-08-14T20:56:40.501Z,96672.44
2023-08-14T21:01:43.042Z,96679.63
2023-08-14T21:06:46.386Z,96692.03
2023-08-14T21:11:53.957Z,96683.63
2023-08-14T21:16:56.667Z,96662.53
2023-08-14T21:21:59.129Z,96660.25
2023-08-14T21:27:02.049Z,96669.84
2023-08-14T21:32:05.334Z,96645.22
2023-08-14T21:37:08.794Z,96644.88
2023-08-14T21:42:11.701Z,96676.25
2023-08-14T21:47:14.401Z,96663.41
2023-08-14T21:52:17.121Z,96623.22
2023-08-14T21:57:20.112Z,96620.56
2023-08-14T22:02:22.752Z,96623.97
2023-08-14T22:07:26.407Z,96628.63
2023-08-14T22:12:32.693Z,96582.66
2023-08-14T22:18:03.861Z,96556.31
2023-08-14T22:23:09.293Z,96621.50
2023-08-14T22:28:14.314Z,96610.31
2023-08-14T22:33:17.207Z,96610.38
2023-08-14T22:38:19.616Z,96625.31
2023-08-14T22:43:22.396Z,96602.03
2023-08-14T22:48:25.210Z,96592.28
2023-08-14T22:53:27.957Z,96602.41
2023-08-14T22:58:30.838Z,96598.34
2023-08-14T23:03:33.616Z,96579.47
2023-08-14T23:08:36.411Z,96582.75
2023-08-14T23:13:39.292Z,96591.28
2023-08-14T23:18:42.037Z,96591.59
2023-08-14T23:23:44.736Z,96583.38
2023-08-14T23:28:47.585Z,96562.75
2023-08-14T23:33:50.284Z,96562.97
2023-08-14T23:38:53.085Z,96559.50
2023-08-14T23:43:55.766Z,96571.56
2023-08-14T23:48:58.587Z,96567.50
2023-08-14T23:54:00.893Z,96550.91
2023-08-14T23:59:03.719Z,96532.13
